Time;durP1;ratioP1;P1;durP2;ratioP2;P2;SDS_P1;SDS_P2;PMS_P1;PMS_P2;Temp;Humidity;BMP_temperature;BMP_pressure;BME280_temperature;BME280_humidity;BME280_pressure;Samples;Min_cycle;Max_cycle;Signal;HPM_P1;HPM_P2
2023/01/04 00:01:21;;;;;;;1.08;1.05;;;6.70;99.90;;;6.67;100.00;101863.22;5004577;28;20199;-66
2023/01/04 00:03:49;;;;;;;0.77;0.75;;;6.70;99.90;;;6.66;100.00;101872.78;4994788;28;20262;-68
2023/01/04 00:06:16;;;;;;;3.90;1.58;;;6.70;99.90;;;6.61;100.00;101874.69;4997217;28;20250;-65
2023/01/04 00:08:43;;;;;;;1.55;1.30;;;6.70;99.90;;;6.59;100.00;101862.66;5013928;28;20713;-67
2023/01/04 00:11:16;;;;;;;2.70;2.00;;;6.60;99.90;;;6.56;100.00;101857.59;5012226;28;20218;-68
2023/01/04 00:13:44;;;;;;;5.13;3.00;;;6.60;99.90;;;6.57;100.00;101860.13;5014165;28;20262;-65
2023/01/04 00:16:21;;;;;;;2.15;1.25;;;6.60;99.90;;;6.59;100.00;101870.44;5006637;28;20226;-70
2023/01/04 00:18:50;;;;;;;5.37;3.27;;;6.60;99.90;;;6.60;100.00;101869.56;4998535;28;20269;-68
2023/01/04 00:21:26;;;;;;;6.45;2.08;;;6.60;99.90;;;6.59;100.00;101866.13;5010005;28;20654;-67
2023/01/04 00:23:57;;;;;;;3.00;2.70;;;6.60;99.90;;;6.57;100.00;101867.91;5012979;28;20207;-67
2023/01/04 00:26:27;;;;;;;4.00;3.60;;;6.60;99.90;;;6.59;100.00;101860.94;4992047;28;20226;-65
2023/01/04 00:29:04;;;;;;;4.10;3.28;;;6.60;99.90;;;6.62;100.00;101865.16;4983100;28;20294;-68
2023/01/04 00:31:33;;;;;;;4.10;3.20;;;6.60;99.90;;;6.62;100.00;101863.38;4997824;28;20682;-65
2023/01/04 00:34:03;;;;;;;4.32;3.13;;;6.60;99.90;;;6.62;100.00;101859.97;4976055;28;20622;-64
2023/01/04 00:36:31;;;;;;;2.28;1.77;;;6.70;99.90;;;6.61;100.00;101853.94;5001946;28;20230;-66
2023/01/04 00:39:06;;;;;;;4.72;2.75;;;6.60;99.90;;;6.64;100.00;101852.97;5021060;28;20657;-67
2023/01/04 00:41:46;;;;;;;4.05;2.30;;;6.60;99.90;;;6.62;100.00;101839.22;5002223;28;20574;-65
2023/01/04 00:44:31;;;;;;;4.50;2.78;;;6.60;99.90;;;6.65;100.00;101839.09;5005885;28;20200;-66
2023/01/04 00:47:00;;;;;;;6.55;3.45;;;6.60;99.90;;;6.63;100.00;101835.72;5011087;28;20234;-66
2023/01/04 00:49:28;;;;;;;1.20;0.80;;;6.60;99.90;;;6.61;100.00;101832.34;5012786;28;20676;-66
2023/01/04 00:51:56;;;;;;;8.48;4.15;;;6.60;99.90;;;6.64;100.00;101833.09;4995027;28;20199;-66
2023/01/04 00:54:24;;;;;;;3.08;1.02;;;6.70;99.90;;;6.67;100.00;101835.56;5012200;28;20444;-65
2023/01/04 00:56:51;;;;;;;1.90;1.70;;;6.70;99.90;;;6.69;100.00;101835.47;5005708;28;20230;-65
2023/01/04 00:59:20;;;;;;;2.80;2.22;;;6.70;99.90;;;6.64;100.00;101829.63;4997837;28;20657;-65
2023/01/04 01:01:48;;;;;;;3.40;2.55;;;6.70;99.90;;;6.67;100.00;101825.19;5010511;28;20203;-67
2023/01/04 01:04:19;;;;;;;1.98;1.80;;;6.60;99.90;;;6.67;100.00;101826.91;4999606;28;20214;-69
2023/01/04 01:06:46;;;;;;;4.90;3.70;;;6.60;99.90;;;6.67;100.00;101820.00;5012056;28;20223;-67
2023/01/04 01:09:14;;;;;;;6.57;3.15;;;6.70;99.90;;;6.63;100.00;101817.56;5002081;28;20679;-65
2023/01/04 01:11:41;;;;;;;1.93;1.40;;;6.60;99.90;;;6.65;100.00;101815.75;4997560;28;20584;-66
2023/01/04 01:14:16;;;;;;;1.65;1.55;;;6.70;99.90;;;6.65;100.00;101807.97;5002099;28;20630;-66
2023/01/04 01:16:43;;;;;;;2.30;1.97;;;6.70;99.90;;;6.64;100.00;101816.69;4979756;28;20258;-64
2023/01/04 01:19:23;;;;;;;2.10;1.95;;;6.70;99.90;;;6.62;100.00;101815.88;5011540;28;20799;-66
2023/01/04 01:21:50;;;;;;;2.97;2.13;;;6.60;99.90;;;6.65;100.00;101815.75;5003618;28;20612;-66
2023/01/04 01:24:18;;;;;;;2.10;1.90;;;6.60;99.90;;;6.62;100.00;101814.13;4991934;28;20632;-65
2023/01/04 01:26:45;;;;;;;8.50;4.75;;;6.70;99.90;;;6.59;100.00;101810.81;5001430;28;20661;-66
2023/01/04 01:29:12;;;;;;;1.08;0.75;;;6.60;99.90;;;6.56;100.00;101803.97;4994536;28;20581;-66
2023/01/04 01:31:39;;;;;;;1.95;1.20;;;6.60;99.90;;;6.55;100.00;101809.22;5010036;28;20667;-66
2023/01/04 01:34:07;;;;;;;6.25;2.28;;;6.60;99.90;;;6.53;100.00;101811.03;5002690;28;20763;-65
2023/01/04 01:36:34;;;;;;;1.48;1.40;;;6.60;99.90;;;6.44;100.00;101803.56;4995367;28;20227;-68
2023/01/04 01:39:01;;;;;;;3.13;2.10;;;6.50;99.90;;;6.44;100.00;101811.34;4975005;28;20666;-66
2023/01/04 01:41:32;;;;;;;4.20;1.60;;;6.50;99.90;;;6.44;100.00;101801.84;5003232;28;20203;-65
2023/01/04 01:44:05;;;;;;;3.63;2.50;;;6.50;99.90;;;6.40;100.00;101802.00;5011970;28;20690;-66
2023/01/04 01:46:47;;;;;;;4.88;3.38;;;6.40;99.90;;;6.36;100.00;101806.47;5010283;28;20297;-68
2023/01/04 01:49:33;;;;;;;3.67;2.78;;;6.40;99.90;;;6.34;100.00;101802.22;5011746;28;20261;-66
2023/01/04 01:52:07;;;;;;;3.75;2.65;;;6.40;99.90;;;6.31;100.00;101798.00;5005187;28;20623;-65
2023/01/04 01:54:39;;;;;;;8.95;3.70;;;6.30;99.90;;;6.32;100.00;101798.84;4983213;28;20460;-66
2023/01/04 01:57:09;;;;;;;3.42;2.45;;;6.30;99.90;;;6.31;100.00;101785.03;4974709;28;20632;-65
2023/01/04 01:59:41;;;;;;;1.60;1.30;;;6.40;99.90;;;6.31;100.00;101786.78;4989100;28;20638;-68
2023/01/04 02:02:10;;;;;;;3.80;2.53;;;6.30;99.90;;;6.34;100.00;101776.31;4985112;28;20206;-65
2023/01/04 02:04:42;;;;;;;6.22;3.65;;;6.40;99.90;;;6.36;100.00;101769.31;4985185;28;20229;-67
2023/01/04 02:07:10;;;;;;;2.60;2.20;;;6.40;99.90;;;6.38;100.00;101777.88;4987162;28;20223;-66
2023/01/04 02:09:38;;;;;;;3.78;2.85;;;6.40;99.90;;;6.41;100.00;101770.81;4989791;28;20214;-66
2023/01/04 02:12:11;;;;;;;8.02;4.55;;;6.50;99.90;;;6.44;100.00;101756.91;4996901;28;20624;-66
2023/01/04 02:14:39;;;;;;;3.88;3.10;;;6.50;99.90;;;6.43;100.00;101763.00;5012312;28;20211;-67
2023/01/04 02:17:35;;;;;;;5.05;2.70;;;6.50;99.90;;;6.45;100.00;101767.25;4989665;28;20654;-63
2023/01/04 02:20:09;;;;;;;3.80;2.30;;;6.50;99.90;;;6.47;100.00;101749.03;4993979;28;20226;-66
2023/01/04 02:23:09;;;;;;;7.78;3.83;;;6.50;99.90;;;6.48;100.00;101753.28;5000074;28;20676;-65
2023/01/04 02:26:03;;;;;;;6.82;3.15;;;6.50;99.90;;;6.46;100.00;101752.50;5003062;28;20194;-66
2023/01/04 02:29:26;;;;;;;9.55;4.53;;;6.50;99.90;;;6.50;100.00;101754.09;4989350;28;20203;-66
2023/01/04 02:32:38;;;;;;;1.65;0.98;;;6.50;99.90;;;6.47;100.00;101743.84;5007854;28;20674;-65
2023/01/04 02:35:43;;;;;;;3.47;1.48;;;6.50;99.90;;;6.45;100.00;101753.44;4993101;28;20199;-66
2023/01/04 02:38:47;;;;;;;1.10;0.80;;;6.50;99.90;;;6.48;100.00;101753.28;5001009;23;20238;-65
2023/01/04 02:41:20;;;;;;;3.00;2.70;;;6.50;99.90;;;6.47;100.00;101746.44;4995012;28;20233;-66
2023/01/04 02:47:01;;;;;;;1.45;1.38;;;6.50;99.90;;;6.50;100.00;101741.97;5014785;28;20218;-62
2023/01/04 02:52:13;;;;;;;5.88;1.52;;;6.50;99.90;;;6.49;100.00;101729.06;5019095;28;20202;-63
2023/01/04 02:54:42;;;;;;;2.15;1.42;;;6.50;99.90;;;6.54;100.00;101735.75;5013082;28;20210;-64
2023/01/04 02:57:47;;;;;;;2.95;1.55;;;6.60;99.90;;;6.58;100.00;101728.75;5015537;28;20257;-63
2023/01/04 03:06:14;;;;;;;8.20;3.40;;;6.60;99.90;;;6.63;100.00;101721.59;5012071;28;20234;-64
2023/01/04 03:06:54;;;;;;;1.30;1.20;;;6.70;99.90;;;6.70;100.00;101710.94;5003851;28;20599;-65
2023/01/04 03:09:27;;;;;;;1.92;1.80;;;6.70;99.90;;;6.76;99.99;101699.47;4988295;28;20207;-63
2023/01/04 03:15:08;;;;;;;1.20;0.93;;;6.80;99.90;;;6.79;99.17;101702.78;5003895;28;20259;-64
2023/01/04 03:17:56;;;;;;;2.33;1.70;;;6.80;99.90;;;6.79;99.25;101700.19;5016189;28;20598;-63
2023/01/04 03:20:28;;;;;;;2.38;1.48;;;6.80;99.90;;;6.82;98.84;101692.31;5005946;28;20664;-64
2023/01/04 03:37:32;;;;;;;1.98;1.48;;;6.80;99.90;;;6.70;97.90;101674.63;5003598;28;20722;-64
2023/01/04 03:49:21;;;;;;;1.67;1.58;;;6.80;99.90;;;6.75;96.61;101664.91;5025940;28;20202;-66
2023/01/04 03:51:51;;;;;;;1.70;1.60;;;6.80;99.90;;;6.76;96.97;101660.56;5013554;28;20202;-64
2023/01/04 03:54:44;;;;;;;2.15;1.73;;;6.80;99.90;;;6.72;96.27;101652.09;5004085;28;20199;-65
2023/01/04 03:57:12;;;;;;;1.00;1.00;;;6.80;99.90;;;6.72;97.15;101640.84;4995669;28;20241;-64
2023/01/04 03:59:45;;;;;;;0.70;0.70;;;6.70;99.90;;;6.71;97.24;101652.97;4995642;28;20222;-64
2023/01/04 04:02:13;;;;;;;3.00;1.77;;;6.70;99.90;;;6.72;96.83;101648.63;5020877;28;20194;-64
2023/01/04 04:10:12;;;;;;;4.60;1.95;;;6.80;99.90;;;6.81;96.41;101627.53;5032695;28;20210;-65
2023/01/04 04:12:39;;;;;;;2.33;2.13;;;6.90;99.90;;;6.80;95.64;101639.63;5020524;28;20206;-64
2023/01/04 04:15:06;;;;;;;1.30;1.20;;;6.80;99.90;;;6.78;95.69;101641.47;5015506;28;20207;-65
2023/01/04 04:17:33;;;;;;;1.85;1.60;;;6.80;99.90;;;6.83;95.48;101649.06;5015965;28;20218;-64
2023/01/04 04:20:00;;;;;;;0.80;0.80;;;6.90;99.90;;;6.79;95.77;101645.72;5011454;28;20230;-64
2023/01/04 04:22:27;;;;;;;3.10;2.80;;;6.90;99.90;;;6.76;97.01;101637.22;5012698;28;20202;-64
2023/01/04 04:24:53;;;;;;;2.47;2.10;;;6.80;99.90;;;6.74;97.12;101641.63;5014044;28;20195;-66
2023/01/04 04:27:20;;;;;;;1.02;0.93;;;6.80;99.90;;;6.69;97.63;101643.56;5014423;28;20219;-64
2023/01/04 04:29:47;;;;;;;1.73;1.17;;;6.70;99.90;;;6.65;97.24;101639.41;5030354;28;20732;-63
2023/01/04 04:32:14;;;;;;;2.85;2.15;;;6.70;99.90;;;6.58;98.18;101630.19;5021947;28;20207;-64
2023/01/04 04:34:41;;;;;;;2.75;2.47;;;6.60;99.90;;;6.52;98.51;101628.66;5023190;28;20201;-64
2023/01/04 04:37:08;;;;;;;1.77;1.45;;;6.60;99.90;;;6.49;98.73;101627.97;5005424;28;20329;-65
2023/01/04 04:39:35;;;;;;;3.20;1.30;;;6.50;99.90;;;6.49;98.60;101633.16;5016086;28;20677;-64
2023/01/04 04:42:02;;;;;;;2.95;2.63;;;6.60;99.90;;;6.42;98.89;101631.69;5019142;28;20199;-65
2023/01/04 04:44:29;;;;;;;1.08;0.98;;;6.50;99.90;;;6.43;99.11;101621.25;5014380;28;20199;-64
2023/01/04 04:46:55;;;;;;;2.30;2.15;;;6.50;99.90;;;6.39;98.38;101626.63;5011981;28;20219;-66
2023/01/04 04:49:22;;;;;;;2.03;1.83;;;6.50;99.90;;;6.34;98.50;101621.63;5018463;28;20199;-63
2023/01/04 04:51:49;;;;;;;1.00;1.00;;;6.40;99.90;;;6.37;99.00;101620.66;5011847;28;20203;-65
2023/01/04 04:54:19;;;;;;;1.25;0.98;;;6.40;99.90;;;6.33;99.00;101619.06;4995369;28;20222;-66
2023/01/04 04:56:48;;;;;;;1.27;1.27;;;6.40;99.90;;;6.32;98.26;101615.66;5008341;28;20747;-64
2023/01/04 04:59:15;;;;;;;2.08;1.90;;;6.40;99.90;;;6.22;99.28;101619.50;5011594;28;20589;-63
2023/01/04 05:01:42;;;;;;;2.53;1.95;;;6.30;99.90;;;6.15;99.18;101618.06;5017142;28;20395;-65
2023/01/04 05:04:15;;;;;;;2.17;1.95;;;6.20;99.90;;;6.13;99.24;101625.03;5005180;28;20583;-64
2023/01/04 05:06:43;;;;;;;1.80;1.70;;;6.20;99.90;;;6.04;99.39;101626.25;5009983;28;20222;-63
2023/01/04 05:09:11;;;;;;;1.00;1.00;;;6.10;99.90;;;6.03;99.66;101619.34;5017953;28;20194;-63
2023/01/04 05:14:25;;;;;;;1.08;0.98;;;6.10;99.90;;;6.02;99.67;101620.28;5032229;28;20206;-64
2023/01/04 05:16:52;;;;;;;2.55;1.75;;;6.10;99.90;;;6.02;100.00;101612.50;5025272;28;20701;-64
2023/01/04 05:19:19;;;;;;;5.35;3.42;;;6.10;99.90;;;6.03;100.00;101603.81;5018291;28;20199;-64
2023/01/04 05:21:47;;;;;;;1.67;1.10;;;6.10;99.90;;;6.01;100.00;101608.19;5011535;28;20226;-64
2023/01/04 05:24:14;;;;;;;2.78;2.35;;;6.10;99.90;;;6.04;100.00;101599.47;5011851;28;20249;-63
2023/01/04 05:26:40;;;;;;;3.80;2.20;;;6.10;99.90;;;6.04;100.00;101597.72;5014541;28;20227;-64
2023/01/04 05:30:49;;;;;;;1.23;1.13;;;6.10;99.90;;;6.03;100.00;101601.22;5011007;28;20207;-66
2023/01/04 05:31:54;;;;;;;2.80;2.60;;;6.10;99.90;;;6.05;100.00;101593.38;5011934;28;20207;-63
2023/01/04 05:34:21;;;;;;;3.55;1.83;;;6.10;99.90;;;6.08;100.00;101601.91;5012182;28;20229;-64
2023/01/04 05:36:48;;;;;;;4.85;2.85;;;6.10;99.90;;;6.10;100.00;101589.72;5011728;28;20239;-61
2023/01/04 05:39:15;;;;;;;4.97;2.47;;;6.20;99.90;;;6.13;100.00;101581.81;5010978;28;20213;-69
2023/01/04 05:44:27;;;;;;;1.88;1.65;;;6.20;99.90;;;6.17;100.00;101585.16;5012466;28;20730;-63
2023/01/04 05:46:54;;;;;;;0.93;0.93;;;6.20;99.90;;;6.19;100.00;101578.16;5010985;28;20215;-67
2023/01/04 05:49:21;;;;;;;4.15;2.90;;;6.20;99.90;;;6.18;100.00;101572.13;5010962;28;20791;-67
2023/01/04 05:51:48;;;;;;;1.15;1.13;;;6.30;99.90;;;6.23;100.00;101574.53;5010861;28;20221;-67
2023/01/04 05:54:14;;;;;;;2.10;1.60;;;6.30;99.90;;;6.24;100.00;101574.47;5013905;28;20206;-67
2023/01/04 05:56:47;;;;;;;3.28;2.50;;;6.30;99.90;;;6.22;100.00;101563.31;5010944;28;20268;-64
2023/01/04 05:59:14;;;;;;;1.80;1.70;;;6.30;99.90;;;6.28;100.00;101573.44;5016877;28;20240;-64
2023/01/04 06:01:41;;;;;;;2.13;1.50;;;6.30;99.90;;;6.34;100.00;101567.19;5018981;28;20761;-64
2023/01/04 06:04:08;;;;;;;3.33;1.80;;;6.40;99.90;;;6.37;100.00;101553.28;5011291;28;20199;-66
2023/01/04 06:06:35;;;;;;;1.92;1.67;;;6.40;99.90;;;6.44;100.00;101544.31;5009844;28;20231;-63
2023/01/04 06:09:02;;;;;;;3.50;1.50;;;6.50;99.90;;;6.46;100.00;101542.50;5004097;28;20199;-64
2023/01/04 06:11:29;;;;;;;3.03;2.10;;;6.50;99.90;;;6.54;100.00;101543.88;5025900;28;20221;-64
2023/01/04 06:13:56;;;;;;;3.78;2.03;;;6.60;99.90;;;6.57;100.00;101538.59;5031601;28;20209;-64
2023/01/04 06:16:23;;;;;;;1.58;1.42;;;6.60;99.90;;;6.66;100.00;101530.44;5015723;28;20210;-64
2023/01/04 06:18:50;;;;;;;12.20;3.17;;;6.70;99.90;;;6.70;100.00;101528.53;5020023;28;20328;-65
2023/01/04 06:21:17;;;;;;;2.83;1.95;;;6.70;99.90;;;6.75;99.96;101537.00;5027857;28;20591;-64
2023/01/04 06:23:44;;;;;;;1.85;1.55;;;6.70;99.90;;;6.77;99.07;101532.59;5022448;28;20195;-66
2023/01/04 06:26:11;;;;;;;1.35;1.25;;;6.80;99.90;;;6.81;99.04;101544.50;5009711;28;20234;-62
2023/01/04 06:28:38;;;;;;;7.07;2.95;;;6.80;99.90;;;6.83;98.75;101545.28;5017334;28;20213;-64
2023/01/04 06:31:09;;;;;;;5.07;2.13;;;6.90;99.90;;;6.87;99.46;101549.44;5014594;28;20252;-65
2023/01/04 06:33:36;;;;;;;0.90;0.90;;;6.90;99.90;;;6.91;98.19;101553.59;5010666;28;20858;-65
2023/01/04 06:36:05;;;;;;;1.88;0.90;;;6.90;99.90;;;6.93;98.08;101557.81;5014894;28;20280;-65
2023/01/04 06:38:33;;;;;;;0.90;0.90;;;7.00;99.90;;;6.96;98.01;101554.25;4999170;28;20424;-65
2023/01/04 06:41:00;;;;;;;3.17;1.70;;;7.00;99.90;;;7.00;97.79;101551.47;5012111;28;20231;-65
2023/01/04 06:43:27;;;;;;;2.50;1.95;;;7.00;99.90;;;7.07;97.27;101570.19;5014233;28;20202;-65
2023/01/04 06:45:53;;;;;;;2.97;1.80;;;7.10;99.90;;;7.09;98.11;101571.00;5020749;28;20651;-65
2023/01/04 06:48:20;;;;;;;1.30;0.85;;;7.10;99.90;;;7.11;98.27;101570.91;5013773;28;20653;-66
2023/01/04 06:50:47;;;;;;;2.40;1.93;;;7.10;99.90;;;7.14;97.69;101562.97;5013642;28;20218;-64
2023/01/04 06:53:14;;;;;;;1.52;1.27;;;7.10;99.90;;;7.13;97.29;101558.72;5004874;28;20634;-65
2023/01/04 06:55:43;;;;;;;3.65;3.17;;;7.10;99.90;;;7.18;96.74;101559.34;4992605;28;20554;-65
2023/01/04 06:58:10;;;;;;;1.73;1.30;;;7.20;99.90;;;7.22;96.46;101535.78;5001677;28;20218;-64
2023/01/04 07:00:37;;;;;;;2.60;1.42;;;7.20;99.90;;;7.20;97.05;101536.78;5008882;28;20222;-65
2023/01/04 07:03:04;;;;;;;2.77;2.57;;;7.20;99.90;;;7.23;96.35;101524.50;5011031;28;20245;-65
2023/01/04 07:05:42;;;;;;;2.55;2.35;;;7.30;99.90;;;7.24;97.09;101530.53;5028744;28;20632;-65
2023/01/04 07:08:10;;;;;;;3.90;2.60;;;7.30;99.90;;;7.21;96.70;101518.53;5015113;28;20276;-64
2023/01/04 07:10:38;;;;;;;1.98;1.40;;;7.20;99.90;;;7.21;96.95;101513.34;4997151;28;20206;-65
2023/01/04 07:13:05;;;;;;;1.20;0.95;;;7.20;99.90;;;7.28;95.93;101534.69;5004622;28;20213;-65
2023/01/04 07:15:33;;;;;;;6.10;2.25;;;7.30;99.90;;;7.34;96.15;101511.91;5011364;28;20210;-65
2023/01/04 07:18:07;;;;;;;1.73;1.63;;;7.30;99.90;;;7.37;96.25;101511.75;5010922;28;20305;-66
2023/01/04 07:20:36;;;;;;;0.93;0.93;;;7.40;99.90;;;7.43;95.80;101508.88;5004982;28;20676;-64
2023/01/04 07:23:04;;;;;;;1.07;0.80;;;7.40;99.90;;;7.46;94.66;101516.53;5000802;28;20200;-65
2023/01/04 07:25:31;;;;;;;1.70;1.03;;;7.50;99.90;;;7.53;94.68;101515.34;5008416;28;21187;-65
2023/01/04 07:27:58;;;;;;;1.17;0.57;;;7.50;99.90;;;7.54;95.06;101509.22;5013177;28;21053;-65
2023/01/04 07:30:25;;;;;;;2.37;1.80;;;7.50;99.90;;;7.58;94.57;101502.16;5003047;28;20613;-65
2023/01/04 07:32:53;;;;;;;1.23;1.13;;;7.60;99.90;;;7.60;95.54;101511.53;5008998;28;21185;-65
2023/01/04 07:35:21;;;;;;;1.50;1.40;;;7.60;99.90;;;7.69;95.21;101505.94;4994190;28;21185;-64
2023/01/04 07:37:49;;;;;;;6.80;1.13;;;7.70;99.90;;;7.72;95.33;101510.16;5009197;28;20657;-65
2023/01/04 07:40:24;;;;;;;0.50;0.50;;;7.70;99.90;;;7.76;95.08;101502.16;5010118;28;20624;-66
2023/01/04 07:42:58;;;;;;;1.10;1.00;;;7.80;99.90;;;7.84;95.08;101493.97;5009535;28;20629;-64
2023/01/04 07:45:26;;;;;;;1.17;1.10;;;7.80;99.90;;;7.83;96.20;101490.56;5010627;28;20620;-65
2023/01/04 07:47:53;;;;;;;0.70;0.70;;;7.80;99.90;;;7.80;95.79;101485.50;5008574;28;20660;-63
2023/01/04 07:50:20;;;;;;;0.60;0.60;;;7.90;99.90;;;7.87;96.35;101480.00;5007570;28;21189;-66
2023/01/04 07:52:47;;;;;;;0.50;0.50;;;7.80;99.90;;;7.90;96.13;101469.47;5001924;28;20630;-65
2023/01/04 07:55:13;;;;;;;1.30;1.20;;;7.90;99.90;;;7.84;97.61;101471.44;5012553;28;20632;-65
2023/01/04 07:57:40;;;;;;;2.57;1.47;;;7.90;99.90;;;7.81;97.60;101463.78;5016474;28;21020;-65
2023/01/04 08:00:10;;;;;;;0.40;0.40;;;7.80;99.90;;;7.84;97.78;101465.41;5012695;28;20625;-65
2023/01/04 08:02:37;;;;;;;1.10;0.70;;;7.80;99.90;;;7.83;97.76;101456.78;5018276;28;20656;-65
2023/01/04 08:05:05;;;;;;;1.80;1.30;;;7.80;99.90;;;7.94;97.17;101463.22;5015604;28;21041;-66
2023/01/04 08:07:32;;;;;;;0.50;0.50;;;7.90;99.90;;;7.91;98.16;101474.59;5020139;28;21240;-65
2023/01/04 08:09:59;;;;;;;0.93;0.93;;;7.90;99.90;;;7.97;97.09;101482.09;5014584;28;20629;-67
2023/01/04 08:12:26;;;;;;;5.60;0.77;;;8.00;99.90;;;7.96;97.44;101470.03;5013948;28;20637;-65
2023/01/04 08:14:53;;;;;;;1.73;1.40;;;8.00;99.90;;;7.99;97.63;101492.41;5013379;28;20621;-65
2023/01/04 08:17:19;;;;;;;0.60;0.60;;;8.00;99.90;;;7.95;97.60;101490.88;5008437;28;20800;-66
2023/01/04 08:19:46;;;;;;;1.63;0.93;;;8.00;99.90;;;7.94;97.02;101494.41;5011674;28;20659;-65
2023/01/04 08:22:13;;;;;;;1.30;1.20;;;7.90;99.90;;;7.97;96.99;101492.50;5017548;28;20660;-65
2023/01/04 08:24:40;;;;;;;1.90;1.80;;;8.00;99.90;;;7.97;97.52;101487.28;5019790;28;20638;-65
2023/01/04 08:27:07;;;;;;;0.83;0.83;;;8.00;99.90;;;7.98;97.18;101501.13;5014431;28;21016;-65
2023/01/04 08:29:34;;;;;;;1.57;1.50;;;8.00;99.90;;;7.94;98.10;101499.59;5013830;28;20980;-65
2023/01/04 08:32:02;;;;;;;2.93;2.20;;;8.00;99.90;;;7.93;98.01;101495.31;5013179;28;20644;-65
2023/01/04 08:34:30;;;;;;;2.35;1.88;;;7.90;99.90;;;7.95;98.25;101502.13;5024203;28;20639;-65
2023/01/04 08:37:00;;;;;;;1.23;1.20;;;7.90;99.90;;;7.93;97.62;101483.16;5030451;22;20945;-67
2023/01/04 08:39:34;;;;;;;1.10;0.97;;;7.90;99.90;;;7.97;97.14;101487.28;5013940;28;20679;-67
2023/01/04 08:42:02;;;;;;;0.67;0.67;;;8.00;99.90;;;7.96;97.57;101500.38;5008441;28;20687;-67
2023/01/04 08:44:46;;;;;;;0.87;0.87;;;7.90;99.90;;;7.96;97.32;101497.78;5018215;28;20763;-67
2023/01/04 08:47:13;;;;;;;1.67;1.57;;;7.90;99.90;;;7.95;97.87;101488.28;5025088;28;20657;-66
2023/01/04 08:49:40;;;;;;;2.05;1.10;;;8.00;99.90;;;7.98;97.57;101488.13;4976958;28;21038;-66
2023/01/04 08:52:08;;;;;;;0.68;0.68;;;8.00;99.90;;;7.99;97.97;101474.22;4984130;28;20213;-65
2023/01/04 08:54:35;;;;;;;2.40;1.57;;;8.00;99.90;;;7.96;97.08;101480.44;5010626;28;20206;-66
2023/01/04 08:57:02;;;;;;;2.03;1.50;;;8.00;99.90;;;7.98;96.95;101467.34;4989549;28;21014;-67
2023/01/04 08:59:29;;;;;;;0.52;0.52;;;8.00;99.90;;;7.93;97.57;101466.72;5008018;28;20633;-66
2023/01/04 09:01:56;;;;;;;1.07;1.00;;;7.90;99.90;;;7.95;97.22;101472.69;4995017;28;20233;-67
2023/01/04 09:04:31;;;;;;;0.83;0.83;;;7.90;99.90;;;7.97;97.50;101468.25;4986557;28;20626;-67
2023/01/04 09:06:58;;;;;;;1.02;0.80;;;7.90;99.90;;;8.02;97.67;101463.69;5011201;28;20691;-67
2023/01/04 09:09:25;;;;;;;0.90;0.90;;;8.00;99.90;;;8.04;97.17;101462.69;5012933;28;20207;-67
2023/01/04 09:11:52;;;;;;;1.90;0.83;;;8.00;99.90;;;8.06;97.52;101475.63;4982474;28;20649;-67
2023/01/04 09:14:19;;;;;;;1.33;1.07;;;8.10;99.90;;;8.06;98.07;101467.81;4980282;28;20637;-67
2023/01/04 09:16:46;;;;;;;1.13;0.80;;;8.10;99.90;;;8.15;97.94;101476.03;4976409;28;20642;-67
2023/01/04 09:19:13;;;;;;;1.70;1.60;;;8.10;99.90;;;8.16;97.30;101469.06;4997892;28;20626;-67
2023/01/04 09:21:47;;;;;;;0.70;0.70;;;8.20;99.90;;;8.16;98.16;101463.84;5000959;28;20664;-68
2023/01/04 09:24:14;;;;;;;1.27;1.17;;;8.20;99.90;;;8.19;97.70;101466.31;5005811;28;20642;-67
2023/01/04 09:26:41;;;;;;;1.53;1.43;;;8.20;99.90;;;8.21;97.49;101469.69;4998997;28;20944;-67
2023/01/04 09:29:10;;;;;;;0.90;0.90;;;8.20;99.90;;;8.13;98.25;101466.63;5011826;28;20637;-67
2023/01/04 09:31:37;;;;;;;0.80;0.60;;;8.10;99.90;;;8.19;97.97;101455.91;5009481;28;20720;-67
2023/01/04 09:34:04;;;;;;;0.57;0.50;;;8.20;99.90;;;8.19;98.45;101453.31;5009752;28;21271;-67
2023/01/04 09:36:43;;;;;;;1.23;0.53;;;8.20;99.90;;;8.24;98.32;101452.16;5011224;28;20624;-67
2023/01/04 09:39:10;;;;;;;1.03;1.00;;;8.20;99.90;;;8.29;98.01;101462.38;4977801;28;20994;-67
2023/01/04 09:41:59;;;;;;;0.40;0.40;;;8.20;99.90;;;8.31;97.65;101466.59;5001955;28;20665;-67
2023/01/04 09:44:42;;;;;;;1.33;0.60;;;8.30;99.90;;;8.32;97.68;101444.88;4993907;28;21090;-67
2023/01/04 09:47:49;;;;;;;0.83;0.83;;;8.30;99.90;;;8.42;96.94;101450.44;5006427;28;21237;-67
2023/01/04 09:50:50;;;;;;;0.73;0.70;;;8.40;99.90;;;8.43;96.43;101446.94;4974982;28;21204;-67
2023/01/04 09:53:46;;;;;;;0.60;0.60;;;8.40;99.90;;;8.49;95.64;101451.84;4990443;28;20656;-68
2023/01/04 09:56:35;;;;;;;0.57;0.53;;;8.50;99.90;;;8.48;95.84;101447.53;5000114;28;20724;-68
2023/01/04 09:59:09;;;;;;;0.60;0.60;;;8.50;99.90;;;8.46;95.30;101437.22;4996124;28;20675;-67
2023/01/04 10:01:52;;;;;;;0.87;0.70;;;8.50;99.90;;;8.48;95.84;101444.94;4992991;28;20708;-64
2023/01/04 10:04:35;;;;;;;0.37;0.37;;;8.50;99.90;;;8.48;95.91;101450.13;4981379;28;20684;-68
2023/01/04 10:07:02;;;;;;;0.80;0.80;;;8.50;99.90;;;8.50;95.83;101443.94;4987204;28;20645;-67
2023/01/04 10:09:32;;;;;;;0.60;0.60;;;8.50;99.90;;;8.50;95.20;101448.28;5009355;28;21445;-66
2023/01/04 10:12:28;;;;;;;0.53;0.40;;;8.50;99.90;;;8.50;94.81;101435.28;4981133;28;20634;-67
2023/01/04 10:15:33;;;;;;;0.60;0.60;;;8.50;99.90;;;8.48;95.28;101424.97;4986359;28;21010;-66
2023/01/04 10:18:47;;;;;;;1.33;0.83;;;8.50;99.90;;;8.50;95.42;101424.88;4987838;28;20685;-65
2023/01/04 10:21:52;;;;;;;0.40;0.40;;;8.50;99.90;;;8.48;95.25;101424.13;4981574;28;20669;-66
2023/01/04 10:24:44;;;;;;;0.93;0.93;;;8.50;99.90;;;8.51;96.33;101418.78;4990777;28;21203;-65
2023/01/04 10:27:53;;;;;;;0.70;0.60;;;8.50;99.90;;;8.48;96.22;101416.31;4990927;28;20658;-67
2023/01/04 10:30:39;;;;;;;0.70;0.70;;;8.50;99.90;;;8.51;95.66;101410.97;4996603;28;21041;-65
2023/01/04 10:33:30;;;;;;;0.87;0.70;;;8.50;99.90;;;8.52;95.54;101405.69;5008975;28;20621;-66
2023/01/04 10:35:57;;;;;;;0.83;0.83;;;8.50;99.90;;;8.55;95.39;101402.94;4975641;28;20610;-65
2023/01/04 10:38:29;;;;;;;1.13;0.70;;;8.50;99.90;;;8.57;96.05;101398.50;4986804;28;20665;-66
2023/01/04 10:41:01;;;;;;;0.50;0.50;;;8.50;99.90;;;8.58;96.21;101404.56;4977467;28;20680;-66
2023/01/04 10:43:59;;;;;;;0.40;0.40;;;8.60;99.90;;;8.60;95.74;101413.13;4979645;28;20626;-66
2023/01/04 10:47:08;;;;;;;0.70;0.60;;;8.60;99.90;;;8.64;95.99;101396.44;4997968;28;20629;-66
2023/01/04 10:50:09;;;;;;;0.40;0.40;;;8.60;99.90;;;8.64;96.74;101395.56;5003450;28;20637;-66
2023/01/04 10:52:47;;;;;;;0.60;0.60;;;8.70;99.90;;;8.59;96.76;101390.59;4990882;28;20664;-65
2023/01/04 10:55:24;;;;;;;0.50;0.50;;;8.60;99.90;;;8.67;97.03;101379.81;4995332;28;20613;-66
2023/01/04 10:57:59;;;;;;;0.40;0.40;;;8.60;99.90;;;8.67;97.34;101398.84;5010075;28;20891;-66
2023/01/04 11:01:01;;;;;;;1.07;0.60;;;8.60;99.90;;;8.71;97.52;101395.16;5009303;28;21062;-66
2023/01/04 11:03:44;;;;;;;1.27;0.60;;;8.60;99.90;;;8.75;97.34;101396.72;5000660;28;20684;-66
2023/01/04 11:06:39;;;;;;;0.83;0.83;;;8.70;99.90;;;8.76;97.56;101393.19;4989649;28;21201;-66
2023/01/04 11:09:20;;;;;;;1.00;0.80;;;8.80;99.90;;;8.76;98.01;101382.78;4992905;28;20668;-65
2023/01/04 11:11:56;;;;;;;0.30;0.30;;;8.70;99.90;;;8.79;97.97;101373.97;4986985;28;20729;-66
2023/01/04 11:14:24;;;;;;;1.80;0.57;;;8.70;99.90;;;8.82;97.54;101366.81;4995074;28;20973;-66
2023/01/04 11:16:58;;;;;;;0.40;0.40;;;8.80;99.90;;;8.83;97.94;101368.53;4996394;28;20645;-66
2023/01/04 11:19:27;;;;;;;0.63;0.57;;;8.80;99.90;;;8.89;97.73;101378.59;5009450;28;20687;-66
2023/01/04 11:22:04;;;;;;;0.63;0.63;;;8.80;99.90;;;8.92;97.58;101386.22;4986799;28;21255;-65
2023/01/04 11:24:33;;;;;;;0.43;0.43;;;8.90;99.90;;;8.93;97.54;101379.25;5008860;28;20628;-66
2023/01/04 11:27:06;;;;;;;0.30;0.30;;;8.90;99.90;;;8.95;96.84;101380.88;4978053;28;20649;-66
2023/01/04 11:29:51;;;;;;;0.43;0.43;;;8.90;99.90;;;8.97;97.40;101359.97;4970532;28;20934;-66
2023/01/04 11:33:06;;;;;;;0.40;0.40;;;8.90;99.90;;;9.00;97.14;101349.41;5013421;28;20741;-65
2023/01/04 11:35:47;;;;;;;0.73;0.73;;;9.00;99.90;;;9.05;97.09;101344.78;4995071;28;20625;-66